createdAt,value
2018-03-01T00:01:36.000Z,26.8
2018-03-01T00:03:36.000Z,26.7
2018-03-01T00:05:36.000Z,26.7
2018-03-01T00:06:36.000Z,26.6
2018-03-01T00:08:36.000Z,26.6
2018-03-01T00:09:36.000Z,26.6
2018-03-01T00:11:36.000Z,26.6
2018-03-01T00:13:36.000Z,26.6
2018-03-01T00:14:36.000Z,26.6
2018-03-01T00:16:36.000Z,26.6
2018-03-01T00:18:36.000Z,26.5
2018-03-01T00:20:36.000Z,26.5
2018-03-01T00:22:21.000Z,26.5
2018-03-01T00:23:36.000Z,26.4
2018-03-01T00:25:21.000Z,26.4
2018-03-01T00:26:36.000Z,26.4
2018-03-01T00:28:36.000Z,26.4
2018-03-01T00:30:36.000Z,26.3
2018-03-01T00:32:36.000Z,26.3
2018-03-01T00:33:36.000Z,26.3
2018-03-01T00:34:36.000Z,26.3
2018-03-01T00:35:36.000Z,26.3
2018-03-01T00:37:36.000Z,26.4
2018-03-01T00:38:36.000Z,26.4
2018-03-01T00:40:21.000Z,26.5
2018-03-01T00:41:36.000Z,26.4
2018-03-01T00:42:36.000Z,26.5
2018-03-01T00:44:36.000Z,26.5
2018-03-01T00:46:36.000Z,26.4
2018-03-01T00:47:36.000Z,26.4
2018-03-01T00:49:36.000Z,26.4
2018-03-01T00:50:36.000Z,26.4
2018-03-01T00:51:36.000Z,26.4
2018-03-01T00:53:36.000Z,26.4
2018-03-01T00:54:36.000Z,26.4
2018-03-01T00:55:36.000Z,26.5
2018-03-01T00:57:37.000Z,26.5
2018-03-01T00:59:37.000Z,26.4
2018-03-01T01:00:37.000Z,26.4
2018-03-01T01:02:37.000Z,26.4
2018-03-01T01:04:37.000Z,26.4
2018-03-01T01:06:22.000Z,25.9
2018-03-01T01:07:37.000Z,26.3
2018-03-01T01:08:37.000Z,26.3
2018-03-01T01:10:37.000Z,26.4
2018-03-01T01:11:37.000Z,26.4
2018-03-01T01:13:37.000Z,26.4
2018-03-01T01:14:37.000Z,26.4
2018-03-01T01:15:37.000Z,26.4
2018-03-01T01:16:37.000Z,26.5
2018-03-01T01:17:37.000Z,26.5
2018-03-01T01:19:37.000Z,26.5
2018-03-01T01:21:22.000Z,26.5
2018-03-01T01:22:37.000Z,26.5
2018-03-01T01:23:37.000Z,26.5
2018-03-01T01:24:37.000Z,26.5
2018-03-01T01:26:37.000Z,26.5
2018-03-01T01:27:37.000Z,26.5
2018-03-01T01:28:37.000Z,26.5
2018-03-01T01:29:37.000Z,26.5
2018-03-01T01:30:37.000Z,26.6
2018-03-01T01:32:37.000Z,26.5
2018-03-01T01:33:37.000Z,26.5
2018-03-01T01:35:37.000Z,26.5
2018-03-01T01:36:37.000Z,26.5
2018-03-01T01:38:37.000Z,26.5
2018-03-01T01:39:37.000Z,26.5
2018-03-01T01:41:22.000Z,26.5
2018-03-01T01:42:37.000Z,26.4
2018-03-01T01:43:37.000Z,26.4
2018-03-01T01:45:37.000Z,26.4
2018-03-01T01:47:37.000Z,26.4
2018-03-01T01:49:37.000Z,26.3
2018-03-01T01:50:37.000Z,26.3
2018-03-01T01:51:37.000Z,26.4
2018-03-01T01:52:37.000Z,26.4
2018-03-01T01:54:37.000Z,26.5
2018-03-01T01:55:37.000Z,26.5
2018-03-01T01:57:37.000Z,26.4
2018-03-01T01:58:37.000Z,26.4
2018-03-01T02:00:37.000Z,26.3
2018-03-01T02:01:37.000Z,26.2
2018-03-01T02:03:37.000Z,26.2
2018-03-01T02:04:37.000Z,26.2
2018-03-01T02:05:37.000Z,26.3
2018-03-01T02:07:37.000Z,26.4
2018-03-01T02:09:37.000Z,26.3
2018-03-01T02:10:37.000Z,26.2
2018-03-01T02:12:37.000Z,26.2
2018-03-01T02:14:37.000Z,26.1
2018-03-01T02:16:37.000Z,26
2018-03-01T02:18:37.000Z,26
2018-03-01T02:20:37.000Z,26
2018-03-01T02:21:37.000Z,26
2018-03-01T02:22:37.000Z,26
2018-03-01T02:23:37.000Z,26.1
2018-03-01T02:24:37.000Z,26.1
2018-03-01T02:26:37.000Z,26.1
2018-03-01T02:28:37.000Z,26.1
2018-03-01T02:30:37.000Z,26
2018-03-01T02:32:37.000Z,26
2018-03-01T02:33:37.000Z,26
2018-03-01T02:35:37.000Z,26.1
2018-03-01T02:36:37.000Z,26.1
2018-03-01T02:38:37.000Z,26.1
2018-03-01T02:39:37.000Z,26.1
2018-03-01T02:41:37.000Z,26.1
2018-03-01T02:42:37.000Z,26.1
2018-03-01T02:44:37.000Z,26.1
2018-03-01T02:46:37.000Z,26.1
2018-03-01T02:47:37.000Z,26.1
2018-03-01T02:49:37.000Z,26.1
2018-03-01T02:51:21.000Z,26.1
2018-03-01T02:52:37.000Z,26
2018-03-01T02:53:37.000Z,26.1
2018-03-01T02:55:37.000Z,26.1
2018-03-01T02:56:37.000Z,26.1
2018-03-01T02:58:37.000Z,26.2
2018-03-01T02:59:37.000Z,26.2
2018-03-01T03:01:37.000Z,26.2
2018-03-01T03:03:37.000Z,26.2
2018-03-01T03:04:37.000Z,26.2
2018-03-01T03:05:37.000Z,26.2
2018-03-01T03:07:37.000Z,26.1
2018-03-01T03:09:37.000Z,26
2018-03-01T03:11:37.000Z,25.9
2018-03-01T03:13:37.000Z,25.8
2018-03-01T03:14:37.000Z,25.8
2018-03-01T03:16:37.000Z,25.7
2018-03-01T03:18:37.000Z,25.6
2018-03-01T03:19:37.000Z,25.6
2018-03-01T03:20:37.000Z,25.7
2018-03-01T03:21:37.000Z,25.8
2018-03-01T03:22:37.000Z,25.9
2018-03-01T03:24:37.000Z,26
2018-03-01T03:26:21.000Z,26
2018-03-01T03:27:37.000Z,26
2018-03-01T03:29:37.000Z,25.9
2018-03-01T03:31:37.000Z,25.8
2018-03-01T03:32:37.000Z,25.8
2018-03-01T03:34:37.000Z,25.9
2018-03-01T03:35:37.000Z,25.9
2018-03-01T03:37:37.000Z,25.9
2018-03-01T03:39:37.000Z,25.9
2018-03-01T03:41:37.000Z,25.9
2018-03-01T03:42:37.000Z,25.9
2018-03-01T03:43:37.000Z,25.9
2018-03-01T03:44:37.000Z,26
2018-03-01T03:46:37.000Z,26
2018-03-01T03:47:37.000Z,26
2018-03-01T03:49:37.000Z,26
2018-03-01T03:50:37.000Z,26.1
2018-03-01T03:52:37.000Z,26.1
2018-03-01T03:53:37.000Z,26.1
2018-03-01T03:55:37.000Z,26.1
2018-03-01T03:57:37.000Z,26.1
2018-03-01T03:59:37.000Z,26
2018-03-01T04:00:37.000Z,26
2018-03-01T04:01:37.000Z,26
2018-03-01T04:02:37.000Z,26.1
2018-03-01T04:04:37.000Z,26.1
2018-03-01T04:06:37.000Z,26.1
2018-03-01T04:08:37.000Z,26
2018-03-01T04:10:37.000Z,26
2018-03-01T04:12:37.000Z,25.9
2018-03-01T04:14:37.000Z,25.8
2018-03-01T04:15:37.000Z,25.8
2018-03-01T04:17:37.000Z,25.8
2018-03-01T04:18:37.000Z,25.9
2018-03-01T04:20:37.000Z,25.9
2018-03-01T04:21:37.000Z,25.8
2018-03-01T04:23:37.000Z,25.9
2018-03-01T04:25:37.000Z,25.9
2018-03-01T04:27:37.000Z,25.9
2018-03-01T04:28:37.000Z,25.9
2018-03-01T04:30:37.000Z,26
2018-03-01T04:31:37.000Z,26
2018-03-01T04:33:37.000Z,26
2018-03-01T04:35:37.000Z,26
2018-03-01T04:36:37.000Z,26
2018-03-01T04:37:37.000Z,26
2018-03-01T04:38:37.000Z,26.1
2018-03-01T04:39:37.000Z,26.2
2018-03-01T04:41:37.000Z,26.2
2018-03-01T04:43:37.000Z,26.1
2018-03-01T04:45:37.000Z,26.1
2018-03-01T04:46:37.000Z,26
2018-03-01T04:47:37.000Z,26
2018-03-01T04:49:37.000Z,26.1
2018-03-01T04:51:37.000Z,26
2018-03-01T04:52:37.000Z,26
2018-03-01T04:53:37.000Z,26
2018-03-01T04:55:37.000Z,26.1
2018-03-01T04:56:37.000Z,26
2018-03-01T04:57:37.000Z,26.1
2018-03-01T04:59:37.000Z,26.1
2018-03-01T05:01:37.000Z,26
2018-03-01T05:02:37.000Z,26
2018-03-01T05:04:37.000Z,25.9
2018-03-01T05:05:37.000Z,25.9
2018-03-01T05:07:37.000Z,25.8
2018-03-01T05:09:37.000Z,25.7
2018-03-01T05:11:37.000Z,25.6
2018-03-01T05:12:37.000Z,25.6
2018-03-01T05:13:37.000Z,25.7
2018-03-01T05:14:37.000Z,25.7
2018-03-01T05:16:37.000Z,25.7
2018-03-01T05:18:37.000Z,25.7
2018-03-01T05:19:37.000Z,25.7
2018-03-01T05:21:37.000Z,25.7
2018-03-01T05:22:37.000Z,25.7
2018-03-01T05:24:37.000Z,25.8
2018-03-01T05:25:37.000Z,25.8
2018-03-01T05:27:37.000Z,25.7
2018-03-01T05:28:37.000Z,25.7
2018-03-01T05:29:37.000Z,25.8
2018-03-01T05:30:37.000Z,25.8
2018-03-01T05:32:37.000Z,25.8
2018-03-01T05:33:37.000Z,25.8
2018-03-01T05:34:37.000Z,25.8
2018-03-01T05:36:37.000Z,25.7
2018-03-01T05:37:37.000Z,25.7
2018-03-01T05:39:37.000Z,25.7
2018-03-01T05:40:37.000Z,25.7
2018-03-01T05:42:22.000Z,25.8
2018-03-01T05:43:37.000Z,25.7
2018-03-01T05:45:37.000Z,25.7
2018-03-01T05:47:37.000Z,25.7
2018-03-01T05:49:37.000Z,25.7
2018-03-01T05:51:37.000Z,25.7
2018-03-01T05:53:37.000Z,25.7
2018-03-01T05:55:37.000Z,25.7
2018-03-01T05:56:37.000Z,25.7
2018-03-01T05:58:37.000Z,25.8
2018-03-01T05:59:37.000Z,25.8
2018-03-01T06:00:37.000Z,25.9
2018-03-01T06:02:37.000Z,26
2018-03-01T06:03:37.000Z,26
2018-03-01T06:05:37.000Z,26.1
2018-03-01T06:07:37.000Z,26
2018-03-01T06:08:37.000Z,26
2018-03-01T06:10:37.000Z,26
2018-03-01T06:11:37.000Z,26.1
2018-03-01T06:13:37.000Z,26.2
2018-03-01T06:15:37.000Z,26.1
2018-03-01T06:17:37.000Z,26.1
2018-03-01T06:19:37.000Z,26
2018-03-01T06:20:37.000Z,26.1
2018-03-01T06:22:37.000Z,26.2
2018-03-01T06:24:37.000Z,26.2
2018-03-01T06:25:37.000Z,26.2
2018-03-01T06:26:37.000Z,26.2
2018-03-01T06:28:37.000Z,26.2
2018-03-01T06:29:37.000Z,26.3
2018-03-01T06:31:37.000Z,26.4
2018-03-01T06:32:37.000Z,26.4
2018-03-01T06:34:37.000Z,26.5
2018-03-01T06:36:37.000Z,26.4
2018-03-01T06:38:37.000Z,26.4
2018-03-01T06:39:37.000Z,26.3
2018-03-01T06:41:22.000Z,26.4
2018-03-01T06:42:37.000Z,26.4
2018-03-01T06:43:37.000Z,26.4
2018-03-01T06:45:37.000Z,26.5
2018-03-01T06:46:37.000Z,26.5
2018-03-01T06:48:37.000Z,26.5
2018-03-01T06:50:37.000Z,26.4
2018-03-01T06:52:37.000Z,26.3
2018-03-01T06:54:37.000Z,26.3
2018-03-01T06:56:22.000Z,26.4
2018-03-01T06:57:37.000Z,26.3
2018-03-01T06:59:37.000Z,26.4
2018-03-01T07:01:37.000Z,26.4
2018-03-01T07:02:37.000Z,26.5
2018-03-01T07:04:37.000Z,26.6
2018-03-01T07:06:37.000Z,26.7
2018-03-01T07:08:37.000Z,26.7
2018-03-01T07:09:37.000Z,26.7
2018-03-01T07:11:37.000Z,26.8
2018-03-01T07:13:37.000Z,26.9
2018-03-01T07:14:37.000Z,26.9
2018-03-01T07:16:37.000Z,27
2018-03-01T07:18:37.000Z,27.2
2018-03-01T07:19:37.000Z,27.2
2018-03-01T07:21:37.000Z,27.4
2018-03-01T07:23:37.000Z,27.4
2018-03-01T07:25:37.000Z,27.3
2018-03-01T07:26:37.000Z,27.4
2018-03-01T07:28:37.000Z,27.4
2018-03-01T07:30:37.000Z,27.5
2018-03-01T07:32:37.000Z,27.5
2018-03-01T07:34:37.000Z,27.5
2018-03-01T07:36:37.000Z,27.6
2018-03-01T07:37:37.000Z,27.7
2018-03-01T07:39:37.000Z,27.8
2018-03-01T07:40:37.000Z,27.9
2018-03-01T07:42:37.000Z,28
2018-03-01T07:44:37.000Z,28.1
2018-03-01T07:45:37.000Z,28.2
2018-03-01T07:46:37.000Z,28.3
2018-03-01T07:48:37.000Z,28.4
2018-03-01T07:50:22.000Z,28.5
2018-03-01T07:51:37.000Z,28.5
2018-03-01T07:52:37.000Z,28.6
2018-03-01T07:54:37.000Z,28.7
2018-03-01T07:56:37.000Z,28.8
2018-03-01T07:58:37.000Z,28.8
2018-03-01T08:00:37.000Z,28.9
2018-03-01T08:02:37.000Z,28.9
2018-03-01T08:04:37.000Z,29
2018-03-01T08:05:37.000Z,29.1
2018-03-01T08:07:37.000Z,29.2
2018-03-01T08:09:37.000Z,29.2
2018-03-01T08:10:37.000Z,29.3
2018-03-01T08:12:37.000Z,29.6
2018-03-01T08:13:37.000Z,29.7
2018-03-01T08:14:37.000Z,29.9
2018-03-01T08:15:37.000Z,30.1
2018-03-01T08:16:37.000Z,30.2
2018-03-01T08:17:37.000Z,30.4
2018-03-01T08:19:37.000Z,30.8
2018-03-01T08:21:37.000Z,31.1
2018-03-01T08:22:37.000Z,31.2
2018-03-01T08:24:22.000Z,31.5
2018-03-01T08:25:37.000Z,31.7
2018-03-01T08:27:37.000Z,31.6
2018-03-01T08:29:37.000Z,31.3
2018-03-01T08:30:37.000Z,31.2
2018-03-01T08:32:37.000Z,31.3
2018-03-01T08:33:37.000Z,31.4
2018-03-01T08:35:22.000Z,31.4
2018-03-01T08:36:37.000Z,31.5
2018-03-01T08:37:37.000Z,31.5
2018-03-01T08:39:37.000Z,31.6
2018-03-01T08:40:37.000Z,31.6
2018-03-01T08:41:37.000Z,31.6
2018-03-01T08:43:37.000Z,31.6
2018-03-01T08:44:37.000Z,31.6
2018-03-01T08:46:37.000Z,31.3
2018-03-01T08:48:37.000Z,30.9
2018-03-01T08:49:37.000Z,30.8
2018-03-01T08:50:37.000Z,30.7
2018-03-01T08:52:37.000Z,30.5
2018-03-01T08:54:37.000Z,30.3
2018-03-01T08:55:37.000Z,30.2
2018-03-01T08:57:22.000Z,30.2
2018-03-01T08:58:37.000Z,30.1
2018-03-01T09:00:37.000Z,30
2018-03-01T09:02:37.000Z,29.8
2018-03-01T09:04:37.000Z,29.8
2018-03-01T09:05:37.000Z,29.7
2018-03-01T09:06:37.000Z,29.7
2018-03-01T09:07:37.000Z,29.8
2018-03-01T09:09:37.000Z,29.8
2018-03-01T09:10:37.000Z,29.8
2018-03-01T09:11:37.000Z,29.8
2018-03-01T09:13:37.000Z,29.8
2018-03-01T09:14:37.000Z,29.7
2018-03-01T09:15:37.000Z,29.8
2018-03-01T09:16:37.000Z,29.8
2018-03-01T09:17:37.000Z,29.8
2018-03-01T09:18:37.000Z,29.9
2018-03-01T09:19:37.000Z,29.9
2018-03-01T09:20:37.000Z,29.9
2018-03-01T09:21:37.000Z,29.9
2018-03-01T09:23:37.000Z,29.8
2018-03-01T09:25:37.000Z,29.6
2018-03-01T09:27:37.000Z,29.5
2018-03-01T09:29:37.000Z,29.5
2018-03-01T09:31:37.000Z,29.4
2018-03-01T09:32:37.000Z,29.4
2018-03-01T09:34:37.000Z,29.4
2018-03-01T09:36:37.000Z,29.3
2018-03-01T09:38:37.000Z,29.3
2018-03-01T09:40:37.000Z,29.2
2018-03-01T09:41:37.000Z,29.2
2018-03-01T09:43:37.000Z,29.3
2018-03-01T09:44:37.000Z,29.3
2018-03-01T09:45:37.000Z,29.3
2018-03-01T09:47:37.000Z,29.3
2018-03-01T09:48:37.000Z,29.4
2018-03-01T09:50:37.000Z,29.4
2018-03-01T09:51:37.000Z,29.4
2018-03-01T09:52:37.000Z,29.4
2018-03-01T09:53:37.000Z,29.5
2018-03-01T09:55:37.000Z,29.5
2018-03-01T09:57:37.000Z,29.5
2018-03-01T09:58:37.000Z,29.4
2018-03-01T09:59:37.000Z,29.5
2018-03-01T10:01:37.000Z,29.5
2018-03-01T10:02:37.000Z,29.5
2018-03-01T10:04:22.000Z,29.5
2018-03-01T10:05:37.000Z,29.4
2018-03-01T10:06:37.000Z,29.4
2018-03-01T10:08:37.000Z,29.4
2018-03-01T10:10:37.000Z,29.4
2018-03-01T10:12:37.000Z,29.3
2018-03-01T10:14:37.000Z,29.2
2018-03-01T10:15:37.000Z,29.2
2018-03-01T10:17:22.000Z,29.2
2018-03-01T10:18:37.000Z,29.2
2018-03-01T10:19:37.000Z,29.2
2018-03-01T10:21:37.000Z,29.3
2018-03-01T10:22:37.000Z,29.2
2018-03-01T10:24:37.000Z,29.3
2018-03-01T10:26:37.000Z,29.2
2018-03-01T10:27:37.000Z,29.2
2018-03-01T10:29:37.000Z,29.2
2018-03-01T10:31:22.000Z,29.2
2018-03-01T10:32:37.000Z,29.1
2018-03-01T10:34:37.000Z,29.2
2018-03-01T10:36:22.000Z,29.2
2018-03-01T10:37:37.000Z,29.1
2018-03-01T10:39:37.000Z,29.2
2018-03-01T10:40:37.000Z,29.2
2018-03-01T10:42:37.000Z,29.2
2018-03-01T10:44:37.000Z,29.2
2018-03-01T10:46:37.000Z,29.2
2018-03-01T10:47:37.000Z,29.2
2018-03-01T10:49:37.000Z,29.2
2018-03-01T10:50:37.000Z,29.2
2018-03-01T10:52:37.000Z,29.3
2018-03-01T10:53:37.000Z,29.3
2018-03-01T10:55:37.000Z,29.3
2018-03-01T10:56:37.000Z,29.3
2018-03-01T10:57:37.000Z,29.4
2018-03-01T10:59:37.000Z,29.5
2018-03-01T11:00:37.000Z,29.5
2018-03-01T11:01:37.000Z,29.5
2018-03-01T11:02:37.000Z,29.5
2018-03-01T11:03:37.000Z,29.5
2018-03-01T11:05:37.000Z,29.6
2018-03-01T11:07:37.000Z,29.5
2018-03-01T11:09:37.000Z,29.5
2018-03-01T11:10:37.000Z,29.4
2018-03-01T11:12:37.000Z,29.5
2018-03-01T11:13:37.000Z,29.5
2018-03-01T11:15:37.000Z,29.5
2018-03-01T11:17:37.000Z,29.6
2018-03-01T11:19:37.000Z,31.4
2018-03-01T11:21:37.000Z,33.5
2018-03-01T11:23:37.000Z,35.1
2018-03-01T11:24:37.000Z,35.6
2018-03-01T11:26:37.000Z,36.4
2018-03-01T11:28:37.000Z,37.2
2018-03-01T11:30:37.000Z,38.1
2018-03-01T11:32:37.000Z,38.8
2018-03-01T11:34:37.000Z,39
2018-03-01T11:36:37.000Z,37.4
2018-03-01T11:37:37.000Z,36.5
2018-03-01T11:38:37.000Z,35.8
2018-03-01T11:40:37.000Z,34.7
2018-03-01T11:41:37.000Z,34.2
2018-03-01T11:43:22.000Z,33.5
2018-03-01T11:44:37.000Z,33.1
2018-03-01T11:46:37.000Z,32.6
2018-03-01T11:48:22.000Z,32.3
2018-03-01T11:49:37.000Z,32
2018-03-01T11:50:37.000Z,31.8
2018-03-01T11:51:37.000Z,31.8
2018-03-01T11:53:37.000Z,31.6
2018-03-01T11:54:37.000Z,31.5
2018-03-01T11:56:37.000Z,31.3
2018-03-01T11:58:37.000Z,31.1
2018-03-01T12:00:37.000Z,30.9
2018-03-01T12:01:37.000Z,30.9
2018-03-01T12:03:37.000Z,30.7
2018-03-01T12:04:37.000Z,30.7
2018-03-01T12:06:37.000Z,30.6
2018-03-01T12:07:37.000Z,30.6
2018-03-01T12:09:37.000Z,31.1
2018-03-01T12:10:37.000Z,32.2
2018-03-01T12:11:37.000Z,33.4
2018-03-01T12:13:37.000Z,35.7
2018-03-01T12:15:37.000Z,37.3
2018-03-01T12:16:37.000Z,37.8
2018-03-01T12:18:37.000Z,38.8
2018-03-01T12:19:37.000Z,39.2
2018-03-01T12:21:37.000Z,39.8
2018-03-01T12:23:37.000Z,40.3
2018-03-01T12:25:37.000Z,40.7
2018-03-01T12:26:37.000Z,41
2018-03-01T12:27:37.000Z,41.3
2018-03-01T12:29:37.000Z,41.7
2018-03-01T12:31:37.000Z,40.9
2018-03-01T12:33:22.000Z,40
2018-03-01T12:34:37.000Z,39.5
2018-03-01T12:35:37.000Z,39.3
2018-03-01T12:36:37.000Z,39.1
2018-03-01T12:38:37.000Z,38.5
2018-03-01T12:40:37.000Z,38.1
2018-03-01T12:41:37.000Z,37.9
2018-03-01T12:43:37.000Z,37.5
2018-03-01T12:45:37.000Z,37
2018-03-01T12:47:22.000Z,37
2018-03-01T12:48:37.000Z,37
2018-03-01T12:49:37.000Z,37.1
2018-03-01T12:50:37.000Z,37.2
2018-03-01T12:51:37.000Z,37.6
2018-03-01T12:53:37.000Z,38.8
2018-03-01T12:54:37.000Z,39.1
2018-03-01T12:56:37.000Z,38.2
2018-03-01T12:58:37.000Z,37.3
2018-03-01T13:00:37.000Z,36
2018-03-01T13:02:37.000Z,35.4
2018-03-01T13:04:37.000Z,35.2
2018-03-01T13:05:37.000Z,35.1
2018-03-01T13:06:37.000Z,35
2018-03-01T13:08:37.000Z,34.7
2018-03-01T13:10:37.000Z,34.5
2018-03-01T13:11:37.000Z,34.4
2018-03-01T13:13:37.000Z,33.1
2018-03-01T13:14:37.000Z,32.7
2018-03-01T13:16:22.000Z,31.8
2018-03-01T13:17:37.000Z,31.2
2018-03-01T13:18:37.000Z,30.6
2018-03-01T13:20:37.000Z,29.7
2018-03-01T13:22:37.000Z,29.8
2018-03-01T13:24:37.000Z,30.2
2018-03-01T13:26:37.000Z,31
2018-03-01T13:27:37.000Z,31.2
2018-03-01T13:29:37.000Z,31.4
2018-03-01T13:30:37.000Z,31.4
2018-03-01T13:32:37.000Z,31.4
2018-03-01T13:33:37.000Z,31.4
2018-03-01T13:35:37.000Z,31.4
2018-03-01T13:37:37.000Z,31.4
2018-03-01T13:39:37.000Z,31.4
2018-03-01T13:41:22.000Z,31.3
2018-03-01T13:42:37.000Z,31.3
2018-03-01T13:43:37.000Z,31.3
2018-03-01T13:44:37.000Z,31.3
2018-03-01T13:46:22.000Z,31.4
2018-03-01T13:47:37.000Z,31.3
2018-03-01T13:49:37.000Z,31.4
2018-03-01T13:50:37.000Z,31.4
2018-03-01T13:52:37.000Z,31.5
2018-03-01T13:54:37.000Z,31.5
2018-03-01T13:56:37.000Z,31.5
2018-03-01T13:57:37.000Z,31.5
2018-03-01T13:58:37.000Z,31.6
2018-03-01T13:59:37.000Z,31.6
2018-03-01T14:01:37.000Z,31.7
2018-03-01T14:02:37.000Z,31.8
2018-03-01T14:04:37.000Z,32
2018-03-01T14:05:37.000Z,32
2018-03-01T14:07:37.000Z,32.1
2018-03-01T14:08:37.000Z,32.1
2018-03-01T14:09:37.000Z,32.2
2018-03-01T14:11:37.000Z,32.1
2018-03-01T14:12:37.000Z,31.6
2018-03-01T14:13:37.000Z,31
2018-03-01T14:15:22.000Z,30.2
2018-03-01T14:16:37.000Z,29.4
2018-03-01T14:17:37.000Z,28.9
2018-03-01T14:18:37.000Z,28.5
2018-03-01T14:20:37.000Z,27.9
2018-03-01T14:21:37.000Z,27.8
2018-03-01T14:22:37.000Z,27.6
2018-03-01T14:23:37.000Z,27.5
2018-03-01T14:25:37.000Z,27
2018-03-01T14:26:37.000Z,26.6
2018-03-01T14:28:37.000Z,25.9
2018-03-01T14:29:37.000Z,25.7
2018-03-01T14:30:37.000Z,25.5
2018-03-01T14:32:37.000Z,25.3
2018-03-01T14:33:37.000Z,25.1
2018-03-01T14:35:37.000Z,24.9
2018-03-01T14:36:37.000Z,24.7
2018-03-01T14:38:37.000Z,24.3
2018-03-01T14:39:37.000Z,24.1
2018-03-01T14:41:37.000Z,23.8
2018-03-01T14:43:37.000Z,23.5
2018-03-01T14:45:37.000Z,23.4
2018-03-01T14:46:37.000Z,23.3
2018-03-01T14:48:21.000Z,23.2
2018-03-01T14:49:37.000Z,23.1
2018-03-01T14:50:37.000Z,23.1
2018-03-01T14:51:37.000Z,23.2
2018-03-01T14:53:37.000Z,22.8
2018-03-01T14:55:37.000Z,22.2
2018-03-01T14:56:37.000Z,22
2018-03-01T14:58:37.000Z,21.6
2018-03-01T14:59:37.000Z,21.4
2018-03-01T15:01:37.000Z,21.2
2018-03-01T15:03:37.000Z,21
2018-03-01T15:04:37.000Z,21.1
2018-03-01T15:06:37.000Z,21.5
2018-03-01T15:07:37.000Z,21.7
2018-03-01T15:08:37.000Z,21.9
2018-03-01T15:10:37.000Z,22.4
2018-03-01T15:12:37.000Z,22.7
2018-03-01T15:13:37.000Z,22.9
2018-03-01T15:14:37.000Z,23
2018-03-01T15:16:21.000Z,23.3
2018-03-01T15:17:37.000Z,23.4
2018-03-01T15:19:37.000Z,23.6
2018-03-01T15:21:37.000Z,23.7
2018-03-01T15:22:37.000Z,23.8
2018-03-01T15:23:37.000Z,23.9
2018-03-01T15:25:37.000Z,24.1
2018-03-01T15:27:37.000Z,24.2
2018-03-01T15:29:37.000Z,24.2
2018-03-01T15:30:37.000Z,24.3
2018-03-01T15:31:37.000Z,24.3
2018-03-01T15:33:37.000Z,24.4
2018-03-01T15:35:37.000Z,24.5
2018-03-01T15:37:37.000Z,24.5
2018-03-01T15:39:37.000Z,24.5
2018-03-01T15:41:37.000Z,24.5
2018-03-01T15:42:37.000Z,24.5
2018-03-01T15:44:37.000Z,24.7
2018-03-01T15:45:37.000Z,24.7
2018-03-01T15:46:37.000Z,24.8
2018-03-01T15:47:37.000Z,24.9
2018-03-01T15:49:22.000Z,25
2018-03-01T15:50:37.000Z,25.1
2018-03-01T15:52:37.000Z,25.1
2018-03-01T15:53:37.000Z,25
2018-03-01T15:54:37.000Z,25.1
2018-03-01T15:56:37.000Z,25.2
2018-03-01T15:57:37.000Z,25.2
2018-03-01T15:59:37.000Z,25.3
2018-03-01T16:00:37.000Z,25.3
2018-03-01T16:02:37.000Z,25.4
2018-03-01T16:03:37.000Z,25.5
2018-03-01T16:05:37.000Z,25.6
2018-03-01T16:07:37.000Z,25.6
2018-03-01T16:09:37.000Z,25.6
2018-03-01T16:11:22.000Z,25.6
2018-03-01T16:12:37.000Z,25.6
2018-03-01T16:13:37.000Z,25.6
2018-03-01T16:15:37.000Z,25.7
2018-03-01T16:17:37.000Z,25.8
2018-03-01T16:19:37.000Z,25.8
2018-03-01T16:21:37.000Z,25.8
2018-03-01T16:22:37.000Z,25.8
2018-03-01T16:23:37.000Z,25.9
2018-03-01T16:25:37.000Z,26
2018-03-01T16:27:37.000Z,25.9
2018-03-01T16:29:37.000Z,25.9
2018-03-01T16:31:37.000Z,25.9
2018-03-01T16:32:37.000Z,25.9
2018-03-01T16:33:37.000Z,25.9
2018-03-01T16:35:37.000Z,26
2018-03-01T16:37:37.000Z,26
2018-03-01T16:38:37.000Z,26
2018-03-01T16:40:37.000Z,25.9
2018-03-01T16:42:37.000Z,25.8
2018-03-01T16:44:37.000Z,25.7
2018-03-01T16:46:22.000Z,25.7
2018-03-01T16:47:37.000Z,25.7
2018-03-01T16:48:37.000Z,25.7
2018-03-01T16:49:37.000Z,25.8
2018-03-01T16:51:37.000Z,25.8
2018-03-01T16:52:37.000Z,25.8
2018-03-01T16:53:37.000Z,25.9
2018-03-01T16:55:37.000Z,26
2018-03-01T16:56:37.000Z,26
2018-03-01T16:58:37.000Z,26
2018-03-01T17:00:37.000Z,25.9
2018-03-01T17:01:37.000Z,25.9
2018-03-01T17:02:37.000Z,25.9
2018-03-01T17:03:37.000Z,25.9
2018-03-01T17:04:37.000Z,26
2018-03-01T17:05:37.000Z,26.1
2018-03-01T17:07:37.000Z,26.1
2018-03-01T17:08:37.000Z,26.1
2018-03-01T17:10:37.000Z,26
2018-03-01T17:12:37.000Z,25.9
2018-03-01T17:13:37.000Z,25.9
2018-03-01T17:14:37.000Z,25.8
2018-03-01T17:16:37.000Z,25.8
2018-03-01T17:18:22.000Z,25.8
2018-03-01T17:19:37.000Z,25.8
2018-03-01T17:21:37.000Z,25.7
2018-03-01T17:22:37.000Z,25.7
2018-03-01T17:23:37.000Z,25.8
2018-03-01T17:25:37.000Z,25.8
2018-03-01T17:26:37.000Z,25.9
2018-03-01T17:27:37.000Z,25.9
2018-03-01T17:29:37.000Z,25.9
2018-03-01T17:31:37.000Z,25.9
2018-03-01T17:32:37.000Z,25.9
2018-03-01T17:33:37.000Z,25.9
2018-03-01T17:35:37.000Z,26
2018-03-01T17:37:37.000Z,25.9
2018-03-01T17:38:37.000Z,25.9
2018-03-01T17:39:37.000Z,26
2018-03-01T17:41:37.000Z,26
2018-03-01T17:42:37.000Z,26
2018-03-01T17:43:37.000Z,26
2018-03-01T17:45:37.000Z,25.9
2018-03-01T17:46:37.000Z,25.9
2018-03-01T17:47:37.000Z,25.9
2018-03-01T17:49:37.000Z,25.9
2018-03-01T17:50:37.000Z,25.9
2018-03-01T17:52:37.000Z,25.8
2018-03-01T17:53:37.000Z,25.8
2018-03-01T17:54:37.000Z,25.8
2018-03-01T17:56:37.000Z,25.9
2018-03-01T17:57:37.000Z,25.9
2018-03-01T17:58:37.000Z,25.9
2018-03-01T17:59:37.000Z,25.9
2018-03-01T18:01:37.000Z,25.9
2018-03-01T18:03:37.000Z,25.9
2018-03-01T18:05:37.000Z,25.8
2018-03-01T18:07:37.000Z,25.8
2018-03-01T18:08:37.000Z,25.8
2018-03-01T18:10:37.000Z,25.8
2018-03-01T18:12:37.000Z,25.7
2018-03-01T18:13:37.000Z,25.7
2018-03-01T18:15:37.000Z,25.7
2018-03-01T18:17:37.000Z,25.7
2018-03-01T18:18:37.000Z,25.7
2018-03-01T18:19:37.000Z,25.7
2018-03-01T18:21:37.000Z,25.8
2018-03-01T18:22:37.000Z,25.8
2018-03-01T18:23:37.000Z,25.9
2018-03-01T18:25:37.000Z,25.9
2018-03-01T18:27:37.000Z,25.9
2018-03-01T18:29:37.000Z,25.8
2018-03-01T18:31:37.000Z,25.8
2018-03-01T18:32:37.000Z,25.8
2018-03-01T18:33:37.000Z,25.8
2018-03-01T18:35:37.000Z,25.9
2018-03-01T18:36:37.000Z,25.9
2018-03-01T18:37:37.000Z,25.9
2018-03-01T18:38:37.000Z,26
2018-03-01T18:40:37.000Z,26
2018-03-01T18:41:37.000Z,26
2018-03-01T18:43:37.000Z,26
2018-03-01T18:44:37.000Z,26
2018-03-01T18:45:37.000Z,26
2018-03-01T18:47:37.000Z,26
2018-03-01T18:49:37.000Z,26
2018-03-01T18:50:37.000Z,26
2018-03-01T18:52:37.000Z,25.9
2018-03-01T18:53:37.000Z,25.9
2018-03-01T18:55:37.000Z,25.9
2018-03-01T18:57:37.000Z,25.9
2018-03-01T18:58:37.000Z,25.9
2018-03-01T18:59:37.000Z,25.9
2018-03-01T19:01:37.000Z,25.9
2018-03-01T19:02:37.000Z,25.9
2018-03-01T19:04:37.000Z,25.9
2018-03-01T19:06:37.000Z,25.9
2018-03-01T19:07:37.000Z,25.9
2018-03-01T19:09:37.000Z,25.9
2018-03-01T19:11:37.000Z,25.8
2018-03-01T19:12:37.000Z,25.8
2018-03-01T19:14:37.000Z,25.8
2018-03-01T19:15:37.000Z,25.8
2018-03-01T19:17:37.000Z,25.8
2018-03-01T19:18:37.000Z,25.8
2018-03-01T19:20:37.000Z,25.8
2018-03-01T19:21:37.000Z,25.8
2018-03-01T19:22:37.000Z,25.9
2018-03-01T19:23:37.000Z,25.9
2018-03-01T19:24:37.000Z,25.9
2018-03-01T19:25:37.000Z,26
2018-03-01T19:27:37.000Z,26
2018-03-01T19:28:37.000Z,25.9
2018-03-01T19:29:37.000Z,26
2018-03-01T19:30:37.000Z,26
2018-03-01T19:32:37.000Z,26
2018-03-01T19:33:37.000Z,26
2018-03-01T19:35:37.000Z,26
2018-03-01T19:36:37.000Z,26
2018-03-01T19:37:37.000Z,26
2018-03-01T19:38:37.000Z,26
2018-03-01T19:40:37.000Z,26
2018-03-01T19:41:37.000Z,26
2018-03-01T19:42:37.000Z,26
2018-03-01T19:44:37.000Z,26
2018-03-01T19:46:37.000Z,26
2018-03-01T19:47:37.000Z,25.9
2018-03-01T19:49:37.000Z,25.9
2018-03-01T19:51:37.000Z,25.8
2018-03-01T19:52:37.000Z,25.8
2018-03-01T19:54:37.000Z,25.8
2018-03-01T19:55:37.000Z,25.8
2018-03-01T19:57:37.000Z,25.7
2018-03-01T19:58:37.000Z,25.7
2018-03-01T19:59:37.000Z,25.7
2018-03-01T20:01:37.000Z,25.7
2018-03-01T20:02:37.000Z,25.7
2018-03-01T20:04:37.000Z,25.7
2018-03-01T20:05:37.000Z,25.7
2018-03-01T20:06:37.000Z,25.8
2018-03-01T20:08:37.000Z,25.8
2018-03-01T20:09:37.000Z,25.8
2018-03-01T20:10:37.000Z,25.8
2018-03-01T20:12:37.000Z,25.8
2018-03-01T20:14:37.000Z,25.7
2018-03-01T20:16:37.000Z,25.5
2018-03-01T20:18:37.000Z,25.5
2018-03-01T20:20:37.000Z,25.4
2018-03-01T20:22:22.000Z,25.4
2018-03-01T20:23:37.000Z,25.4
2018-03-01T20:25:37.000Z,25.3
2018-03-01T20:27:37.000Z,25.3
2018-03-01T20:29:37.000Z,25.3
2018-03-01T20:31:37.000Z,25.3
2018-03-01T20:33:37.000Z,25.2
2018-03-01T20:34:37.000Z,25.3